createdAt,value
2017-12-17T00:00:27.210Z,10.50
2017-12-17T00:01:30.775Z,10.00
2017-12-17T00:02:34.309Z,12.00
2017-12-17T00:03:37.875Z,10.00
2017-12-17T00:04:41.726Z,15.00
2017-12-17T00:05:44.826Z,15.50
2017-12-17T00:06:48.100Z,12.00
2017-12-17T00:07:51.344Z,8.00
2017-12-17T00:08:54.331Z,11.50
2017-12-17T00:09:57.482Z,10.00
2017-12-17T00:11:00.818Z,14.00
2017-12-17T00:12:04.258Z,11.00
2017-12-17T00:13:07.676Z,11.00
2017-12-17T00:14:10.973Z,12.50
2017-12-17T00:15:13.968Z,9.00
2017-12-17T00:16:16.976Z,11.50
2017-12-17T00:17:19.838Z,8.00
2017-12-17T00:18:22.803Z,11.00
2017-12-17T00:19:25.864Z,9.00
2017-12-17T00:20:29.230Z,12.00
2017-12-17T00:21:32.255Z,9.50
2017-12-17T00:22:35.223Z,14.50
2017-12-17T00:23:38.208Z,12.00
2017-12-17T00:24:41.206Z,11.00
2017-12-17T00:25:44.182Z,8.50
2017-12-17T00:26:47.517Z,15.00
2017-12-17T00:27:50.451Z,13.50
2017-12-17T00:28:53.462Z,13.00
2017-12-17T00:29:57.024Z,14.50
2017-12-17T00:31:00.026Z,15.00
2017-12-17T00:32:02.962Z,10.00
2017-12-17T00:33:06.040Z,8.00
2017-12-17T00:34:08.989Z,11.50
2017-12-17T00:35:11.869Z,11.00
2017-12-17T00:36:15.008Z,14.50
2017-12-17T00:37:18.100Z,9.50
2017-12-17T00:38:21.039Z,10.50
2017-12-17T00:39:24.454Z,12.00
2017-12-17T00:40:27.466Z,8.00
2017-12-17T00:41:30.442Z,12.00
2017-12-17T00:42:33.407Z,9.50
2017-12-17T00:43:36.424Z,8.00
2017-12-17T00:44:39.404Z,7.50
2017-12-17T00:45:42.683Z,9.50
2017-12-17T00:46:45.730Z,14.00
2017-12-17T00:47:48.765Z,14.00
2017-12-17T00:48:51.721Z,11.50
2017-12-17T00:49:54.762Z,9.00
2017-12-17T00:50:57.874Z,11.00
2017-12-17T00:52:01.094Z,8.00
2017-12-17T00:53:04.040Z,13.50
2017-12-17T00:54:07.075Z,9.50
2017-12-17T00:55:10.090Z,10.50
2017-12-17T00:56:13.023Z,9.50
2017-12-17T00:57:16.019Z,12.00
2017-12-17T00:58:19.809Z,10.50
2017-12-17T00:59:22.712Z,10.00
2017-12-17T01:00:25.652Z,9.50
2017-12-17T01:01:28.670Z,8.50
2017-12-17T01:02:31.644Z,12.00
2017-12-17T01:03:34.598Z,10.00
2017-12-17T01:04:37.896Z,10.50
2017-12-17T01:05:40.883Z,9.50
2017-12-17T01:06:43.883Z,10.00
2017-12-17T01:07:46.881Z,8.00
2017-12-17T01:08:49.795Z,13.00
2017-12-17T01:09:52.706Z,11.50
2017-12-17T01:10:55.917Z,16.00
2017-12-17T01:11:58.916Z,13.00
2017-12-17T01:13:01.896Z,13.00
2017-12-17T01:14:04.895Z,13.50
2017-12-17T01:15:07.838Z,14.00
2017-12-17T01:16:10.846Z,14.00
2017-12-17T01:17:14.104Z,10.50
2017-12-17T01:18:17.060Z,12.00
2017-12-17T01:19:20.053Z,16.00
2017-12-17T01:20:22.982Z,11.00
2017-12-17T01:21:26.278Z,13.00
2017-12-17T01:22:29.224Z,11.50
2017-12-17T01:23:32.488Z,16.00
2017-12-17T01:24:35.593Z,6.00
2017-12-17T01:25:38.559Z,13.00
2017-12-17T01:26:41.460Z,8.00
2017-12-17T01:27:44.442Z,10.50
2017-12-17T01:28:47.446Z,10.50
2017-12-17T01:29:50.870Z,13.50
2017-12-17T01:30:53.926Z,14.00
2017-12-17T01:31:56.839Z,10.00
2017-12-17T01:32:59.809Z,10.00
2017-12-17T01:34:02.742Z,10.00
2017-12-17T01:35:05.709Z,13.50
2017-12-17T01:36:08.944Z,17.00
2017-12-17T01:37:11.915Z,12.00
2017-12-17T01:38:14.889Z,20.00
2017-12-17T01:39:17.824Z,14.50
2017-12-17T01:40:20.800Z,21.00
2017-12-17T01:41:23.778Z,13.00
2017-12-17T01:42:27.635Z,15.50
2017-12-17T01:43:30.563Z,17.50
2017-12-17T01:44:33.508Z,16.00
2017-12-17T01:45:36.476Z,13.00
2017-12-17T01:46:39.468Z,13.50
2017-12-17T01:47:42.392Z,14.00
2017-12-17T01:48:45.737Z,18.00
2017-12-17T01:49:48.676Z,11.50
2017-12-17T01:50:51.635Z,16.00
2017-12-17T01:51:54.656Z,16.50
2017-12-17T01:52:57.746Z,11.50
2017-12-17T01:54:00.691Z,10.50
2017-12-17T01:55:03.935Z,16.00
2017-12-17T01:56:06.910Z,13.50
2017-12-17T01:57:09.828Z,13.50
2017-12-17T01:58:12.776Z,14.50
2017-12-17T01:59:15.725Z,17.50
2017-12-17T02:00:18.649Z,11.50
2017-12-17T02:01:29.561Z,14.00
2017-12-17T02:02:32.586Z,13.50
2017-12-17T02:03:35.628Z,16.00
2017-12-17T02:04:38.631Z,11.50
2017-12-17T02:05:41.612Z,14.00
2017-12-17T02:06:44.630Z,12.00
2017-12-17T02:07:47.527Z,15.50
2017-12-17T02:08:50.482Z,18.50
2017-12-17T02:09:53.430Z,14.00
2017-12-17T02:10:56.394Z,12.50
2017-12-17T02:11:59.365Z,11.50
2017-12-17T02:13:02.411Z,12.00
2017-12-17T02:14:05.672Z,19.00
2017-12-17T02:15:08.622Z,11.50
2017-12-17T02:16:11.546Z,9.00
2017-12-17T02:17:14.460Z,12.00
2017-12-17T02:18:17.450Z,10.00
2017-12-17T02:19:20.462Z,9.50
2017-12-17T02:20:23.733Z,10.00
2017-12-17T02:21:27.606Z,12.00
2017-12-17T02:22:30.593Z,8.50
2017-12-17T02:23:33.627Z,8.00
2017-12-17T02:24:36.581Z,6.50
2017-12-17T02:25:39.533Z,15.50
2017-12-17T02:26:42.485Z,8.50
2017-12-17T02:27:45.446Z,9.00
2017-12-17T02:28:48.453Z,15.50
2017-12-17T02:29:51.401Z,13.00
2017-12-17T02:30:54.406Z,10.00
2017-12-17T02:31:57.740Z,9.00
2017-12-17T02:33:00.723Z,12.00
2017-12-17T02:34:03.812Z,15.50
2017-12-17T02:35:06.834Z,12.00
2017-12-17T02:36:09.858Z,11.00
2017-12-17T02:37:12.825Z,13.50
2017-12-17T02:38:16.080Z,7.50
2017-12-17T02:39:19.080Z,20.00
2017-12-17T02:40:22.092Z,14.00
2017-12-17T02:41:25.069Z,10.00
2017-12-17T02:42:28.047Z,8.50
2017-12-17T02:43:31.068Z,12.50
2017-12-17T02:44:34.312Z,9.50
2017-12-17T02:45:37.264Z,11.50
2017-12-17T02:46:40.217Z,11.00
2017-12-17T02:47:43.131Z,9.50
2017-12-17T02:48:46.079Z,10.50
2017-12-17T02:49:49.044Z,12.50
2017-12-17T02:50:52.327Z,11.00
2017-12-17T02:51:55.260Z,15.00
2017-12-17T02:52:58.214Z,16.00
2017-12-17T02:54:01.192Z,11.50
2017-12-17T02:55:04.264Z,16.00
2017-12-17T02:56:07.532Z,10.50
2017-12-17T02:57:10.498Z,8.50
2017-12-17T02:58:13.474Z,16.00
2017-12-17T02:59:16.446Z,11.00
2017-12-17T03:00:23.287Z,17.00
2017-12-17T03:01:26.233Z,16.00
2017-12-17T03:02:29.487Z,11.50
2017-12-17T03:03:32.511Z,12.00
2017-12-17T03:04:35.364Z,14.50
2017-12-17T03:05:38.210Z,9.00
2017-12-17T03:06:41.060Z,10.00
2017-12-17T03:07:43.835Z,11.00
2017-12-17T03:08:46.931Z,17.00
2017-12-17T03:09:49.750Z,11.00
2017-12-17T03:10:52.653Z,11.50
2017-12-17T03:11:55.528Z,10.00
2017-12-17T03:12:58.436Z,10.50
2017-12-17T03:14:01.379Z,11.50
2017-12-17T03:15:04.683Z,9.00
2017-12-17T03:16:07.789Z,8.00
2017-12-17T03:17:10.739Z,12.00
2017-12-17T03:18:13.689Z,8.00
2017-12-17T03:19:16.689Z,11.00
2017-12-17T03:20:19.672Z,9.50
2017-12-17T03:21:23.007Z,10.50
2017-12-17T03:22:25.986Z,12.50
2017-12-17T03:23:28.892Z,8.50
2017-12-17T03:24:31.848Z,7.50
2017-12-17T03:25:34.809Z,10.00
2017-12-17T03:26:37.858Z,9.50
2017-12-17T03:27:40.791Z,10.00
2017-12-17T03:28:43.762Z,13.50
2017-12-17T03:29:46.717Z,9.50
2017-12-17T03:30:49.671Z,9.50
2017-12-17T03:31:52.663Z,14.00
2017-12-17T03:32:55.903Z,9.50
2017-12-17T03:33:58.818Z,12.00
2017-12-17T03:35:01.799Z,8.00
2017-12-17T03:36:04.901Z,8.00
2017-12-17T03:37:07.871Z,8.00
2017-12-17T03:38:10.802Z,8.50
2017-12-17T03:39:14.025Z,7.50
2017-12-17T03:40:16.971Z,6.00
2017-12-17T03:41:19.942Z,10.00
2017-12-17T03:42:22.955Z,7.00
2017-12-17T03:43:25.972Z,8.00
2017-12-17T03:44:28.945Z,8.00
2017-12-17T03:45:32.202Z,7.50
2017-12-17T03:46:35.530Z,8.00
2017-12-17T03:47:38.454Z,7.00
2017-12-17T03:48:41.406Z,5.00
2017-12-17T03:49:44.388Z,8.00
2017-12-17T03:50:47.560Z,8.00
2017-12-17T03:51:50.814Z,9.00
2017-12-17T03:52:53.763Z,8.00
2017-12-17T03:53:56.714Z,8.00
2017-12-17T03:54:59.664Z,6.00
2017-12-17T03:56:02.604Z,12.00
2017-12-17T03:57:05.515Z,8.00
2017-12-17T03:58:08.776Z,7.00
2017-12-17T03:59:11.726Z,9.50
2017-12-17T04:00:14.656Z,8.00
2017-12-17T04:01:17.656Z,6.00
2017-12-17T04:02:20.646Z,9.00
2017-12-17T04:03:23.602Z,10.00
2017-12-17T04:04:26.882Z,9.00
2017-12-17T04:05:29.856Z,10.00
2017-12-17T04:06:32.798Z,8.00
2017-12-17T04:07:35.808Z,5.50
2017-12-17T04:08:38.706Z,9.00
2017-12-17T04:09:41.593Z,10.00
2017-12-17T04:10:44.780Z,10.50
2017-12-17T04:11:47.707Z,15.00
2017-12-17T04:12:50.698Z,8.00
2017-12-17T04:13:53.564Z,8.50
2017-12-17T04:14:56.611Z,7.50
2017-12-17T04:15:59.557Z,13.50
2017-12-17T04:17:02.877Z,12.00
2017-12-17T04:18:05.860Z,11.50
2017-12-17T04:19:08.842Z,9.00
2017-12-17T04:20:11.828Z,12.50
2017-12-17T04:21:14.779Z,6.50
2017-12-17T04:22:17.772Z,6.50
2017-12-17T04:23:20.982Z,8.50
2017-12-17T04:24:23.958Z,8.50
2017-12-17T04:25:26.909Z,10.50
2017-12-17T04:26:29.840Z,8.00
2017-12-17T04:27:32.807Z,5.50
2017-12-17T04:28:35.767Z,9.00
2017-12-17T04:29:38.994Z,6.00
2017-12-17T04:30:41.916Z,7.50
2017-12-17T04:31:48.519Z,14.00
2017-12-17T04:32:51.726Z,8.00
2017-12-17T04:33:55.188Z,9.50
2017-12-17T04:34:58.159Z,10.50
2017-12-17T04:36:01.147Z,8.00
2017-12-17T04:37:04.322Z,15.00
2017-12-17T04:38:07.287Z,9.00
2017-12-17T04:39:10.380Z,8.00
2017-12-17T04:40:13.389Z,9.50
2017-12-17T04:41:16.638Z,13.00
2017-12-17T04:42:19.543Z,9.00
2017-12-17T04:43:22.501Z,12.50
2017-12-17T04:44:25.414Z,8.50
2017-12-17T04:45:29.110Z,12.00
2017-12-17T04:46:36.888Z,9.00
2017-12-17T04:47:40.096Z,10.00
2017-12-17T04:48:42.989Z,6.00
2017-12-17T04:49:45.897Z,11.00
2017-12-17T04:50:48.851Z,6.00
2017-12-17T04:51:51.791Z,7.50
2017-12-17T04:52:54.762Z,12.00
2017-12-17T04:53:58.005Z,9.00
2017-12-17T04:55:01.009Z,9.00
2017-12-17T04:56:03.808Z,9.00
2017-12-17T04:57:06.732Z,11.00
2017-12-17T04:58:09.636Z,12.00
2017-12-17T04:59:12.578Z,10.00
2017-12-17T05:00:15.828Z,11.50
2017-12-17T05:01:18.768Z,10.00
2017-12-17T05:02:22.230Z,11.00
2017-12-17T05:03:25.233Z,11.00
2017-12-17T05:04:28.089Z,9.00
2017-12-17T05:05:31.047Z,7.00
2017-12-17T05:06:34.263Z,10.00
2017-12-17T05:07:37.187Z,12.50
2017-12-17T05:08:40.109Z,12.00
2017-12-17T05:09:43.038Z,12.00
2017-12-17T05:10:46.018Z,11.50
2017-12-17T05:11:48.961Z,16.50
2017-12-17T05:12:52.075Z,15.00
2017-12-17T05:13:54.910Z,11.50
2017-12-17T05:14:57.796Z,13.50
2017-12-17T05:16:00.750Z,12.00
2017-12-17T05:17:03.732Z,17.50
2017-12-17T05:18:06.686Z,9.00
2017-12-17T05:19:09.990Z,12.00
2017-12-17T05:20:12.940Z,13.50
2017-12-17T05:21:15.867Z,10.00
2017-12-17T05:22:18.809Z,13.00
2017-12-17T05:23:21.701Z,13.50
2017-12-17T05:24:24.601Z,12.00
2017-12-17T05:25:27.832Z,13.50
2017-12-17T05:26:30.754Z,14.00
2017-12-17T05:27:33.719Z,14.50
2017-12-17T05:28:36.635Z,8.50
2017-12-17T05:29:39.612Z,18.00
2017-12-17T05:30:42.503Z,14.00
2017-12-17T05:31:45.712Z,10.00
2017-12-17T05:32:48.587Z,13.00
2017-12-17T05:33:51.473Z,10.00
2017-12-17T05:34:54.409Z,15.00
2017-12-17T05:35:57.351Z,22.50
2017-12-17T05:37:00.150Z,14.00
2017-12-17T05:38:03.410Z,12.50
2017-12-17T05:39:06.811Z,12.00
2017-12-17T05:40:09.771Z,14.00
2017-12-17T05:41:12.743Z,12.50
2017-12-17T05:42:15.698Z,13.50
2017-12-17T05:43:18.744Z,13.00
2017-12-17T05:44:22.614Z,15.50
2017-12-17T05:45:25.591Z,18.00
2017-12-17T05:46:28.562Z,11.00
2017-12-17T05:47:31.521Z,27.00
2017-12-17T05:48:34.508Z,22.00
2017-12-17T05:49:37.461Z,18.00
2017-12-17T05:50:40.693Z,21.00
2017-12-17T05:51:43.647Z,17.00
2017-12-17T05:52:46.606Z,18.00
2017-12-17T05:53:49.563Z,12.50
2017-12-17T05:54:53.020Z,19.00
2017-12-17T05:55:56.038Z,16.00
2017-12-17T05:56:59.357Z,23.00
2017-12-17T05:58:02.329Z,19.50
2017-12-17T05:59:05.273Z,20.00
2017-12-17T06:00:08.273Z,15.00
2017-12-17T06:01:11.255Z,18.50
2017-12-17T06:02:14.231Z,18.50
2017-12-17T06:03:17.483Z,20.00
2017-12-17T06:04:20.455Z,14.00
2017-12-17T06:05:23.430Z,19.00
2017-12-17T06:06:26.375Z,18.00
2017-12-17T06:07:29.322Z,15.00
2017-12-17T06:08:32.263Z,16.00
2017-12-17T06:09:35.541Z,20.50
2017-12-17T06:10:38.486Z,27.50
2017-12-17T06:11:41.436Z,21.00
2017-12-17T06:12:44.407Z,12.50
2017-12-17T06:13:47.400Z,19.00
2017-12-17T06:14:50.348Z,19.00
2017-12-17T06:15:53.621Z,19.50
2017-12-17T06:16:56.872Z,19.50
2017-12-17T06:17:59.754Z,20.00
2017-12-17T06:19:02.657Z,20.50
2017-12-17T06:20:05.603Z,26.00
2017-12-17T06:21:08.523Z,16.50
2017-12-17T06:22:11.690Z,20.00
2017-12-17T06:23:14.589Z,16.50
2017-12-17T06:24:17.586Z,15.50
2017-12-17T06:25:20.578Z,17.00
2017-12-17T06:26:23.526Z,22.00
2017-12-17T06:27:26.503Z,16.00
2017-12-17T06:28:29.855Z,26.50
2017-12-17T06:29:33.537Z,17.50
2017-12-17T06:30:36.577Z,19.50
2017-12-17T06:31:39.955Z,25.00
2017-12-17T06:32:42.888Z,23.00
2017-12-17T06:33:45.896Z,19.00
2017-12-17T06:34:49.211Z,18.00
2017-12-17T06:35:52.196Z,15.50
2017-12-17T06:36:55.131Z,18.50
2017-12-17T06:37:58.323Z,13.50
2017-12-17T06:39:01.340Z,23.00
2017-12-17T06:40:04.313Z,13.00
2017-12-17T06:41:07.611Z,22.00
2017-12-17T06:42:10.604Z,18.00
2017-12-17T06:43:13.592Z,13.00
2017-12-17T06:44:16.621Z,22.00
2017-12-17T06:45:19.519Z,20.00
2017-12-17T06:46:23.304Z,18.50
2017-12-17T06:47:26.510Z,20.00
2017-12-17T06:48:29.519Z,20.00
2017-12-17T06:49:32.446Z,17.50
2017-12-17T06:50:35.385Z,22.00
2017-12-17T06:51:38.321Z,18.00
2017-12-17T06:52:41.285Z,18.00
2017-12-17T06:53:44.553Z,13.00
2017-12-17T06:54:47.509Z,19.00
2017-12-17T06:55:50.504Z,30.00
2017-12-17T06:56:53.541Z,12.50
2017-12-17T06:57:56.515Z,23.50
2017-12-17T06:58:59.528Z,22.00
2017-12-17T07:00:02.863Z,19.00
2017-12-17T07:01:05.850Z,26.00
2017-12-17T07:02:08.795Z,29.50
2017-12-17T07:03:11.768Z,22.00
2017-12-17T07:04:14.776Z,15.50
2017-12-17T07:05:17.776Z,19.50
2017-12-17T07:06:21.036Z,22.00
2017-12-17T07:07:23.969Z,17.50
2017-12-17T07:08:26.936Z,29.50
2017-12-17T07:09:29.948Z,18.00
2017-12-17T07:10:32.901Z,23.00
2017-12-17T07:11:35.892Z,29.00
2017-12-17T07:12:39.133Z,24.00
2017-12-17T07:13:41.996Z,25.00
2017-12-17T07:14:44.890Z,27.50
2017-12-17T07:15:47.812Z,25.50
2017-12-17T07:16:51.116Z,12.50
2017-12-17T07:17:54.062Z,26.50
2017-12-17T07:18:57.352Z,28.00
2017-12-17T07:20:00.360Z,29.00
2017-12-17T07:21:03.321Z,18.00
2017-12-17T07:22:06.314Z,13.00
2017-12-17T07:23:09.273Z,15.50
2017-12-17T07:24:12.231Z,23.50
2017-12-17T07:25:15.508Z,22.00
2017-12-17T07:26:18.373Z,22.50
2017-12-17T07:27:21.344Z,13.50
2017-12-17T07:28:24.295Z,19.50
2017-12-17T07:29:27.289Z,18.50
2017-12-17T07:30:30.250Z,24.00
2017-12-17T07:31:33.554Z,21.00
2017-12-17T07:32:36.525Z,17.50
2017-12-17T07:33:39.572Z,20.50
2017-12-17T07:34:42.542Z,18.50
2017-12-17T07:35:45.537Z,28.50
2017-12-17T07:36:48.471Z,20.00
2017-12-17T07:37:51.729Z,28.00
2017-12-17T07:38:54.726Z,23.00
2017-12-17T07:39:57.702Z,20.50
2017-12-17T07:41:00.671Z,19.50
2017-12-17T07:42:03.611Z,21.50
2017-12-17T07:43:06.528Z,21.50
2017-12-17T07:44:09.817Z,17.50
2017-12-17T07:45:12.766Z,19.00
2017-12-17T07:46:15.754Z,12.50
2017-12-17T07:47:18.752Z,20.00
2017-12-17T07:48:21.726Z,19.00
2017-12-17T07:49:24.675Z,17.00
2017-12-17T07:50:28.011Z,18.50
2017-12-17T07:51:30.949Z,24.50
2017-12-17T07:52:34.531Z,18.00
2017-12-17T07:53:37.500Z,23.00
2017-12-17T07:54:40.521Z,15.50
2017-12-17T07:55:43.461Z,25.50
2017-12-17T07:56:46.735Z,13.00
2017-12-17T07:57:50.161Z,15.00
2017-12-17T07:58:53.218Z,21.50
2017-12-17T07:59:56.232Z,27.00
2017-12-17T08:00:59.200Z,21.00
2017-12-17T08:02:02.154Z,17.00
2017-12-17T08:03:05.428Z,21.50
2017-12-17T08:04:08.436Z,22.00
2017-12-17T08:05:11.375Z,26.00
2017-12-17T08:06:14.353Z,26.50
2017-12-17T08:07:17.288Z,26.00
2017-12-17T08:08:20.231Z,23.00
2017-12-17T08:09:23.849Z,16.00
2017-12-17T08:10:26.746Z,14.00
2017-12-17T08:11:29.733Z,26.50
2017-12-17T08:12:32.666Z,26.50
2017-12-17T08:13:35.698Z,12.50
2017-12-17T08:14:38.741Z,21.00
2017-12-17T08:15:42.039Z,24.00
2017-12-17T08:16:45.010Z,18.00
2017-12-17T08:17:47.997Z,20.50
2017-12-17T08:18:50.919Z,22.00
2017-12-17T08:19:53.917Z,26.50
2017-12-17T08:20:57.013Z,19.50
2017-12-17T08:22:00.285Z,21.00
2017-12-17T08:23:03.294Z,18.50
2017-12-17T08:24:06.286Z,18.50
2017-12-17T08:25:09.265Z,22.50
2017-12-17T08:26:12.190Z,17.00
2017-12-17T08:27:15.428Z,20.50
2017-12-17T08:28:18.453Z,22.00
2017-12-17T08:29:21.442Z,18.00
2017-12-17T08:30:24.541Z,20.00
2017-12-17T08:31:27.495Z,14.50
2017-12-17T08:32:30.503Z,17.50
2017-12-17T08:33:33.791Z,14.50
2017-12-17T08:34:36.751Z,14.50
2017-12-17T08:35:39.834Z,19.50
2017-12-17T08:36:42.831Z,21.00
2017-12-17T08:37:45.809Z,16.50
2017-12-17T08:38:48.859Z,14.00
2017-12-17T08:39:52.345Z,13.50
2017-12-17T08:40:55.393Z,22.00
2017-12-17T08:41:58.381Z,17.00
2017-12-17T08:43:01.368Z,14.50
2017-12-17T08:44:04.365Z,24.00
2017-12-17T08:45:07.411Z,21.00
2017-12-17T08:46:10.759Z,11.50
2017-12-17T08:47:13.697Z,19.50
2017-12-17T08:48:16.672Z,19.00
2017-12-17T08:49:19.644Z,21.00
2017-12-17T08:50:22.711Z,21.50
2017-12-17T08:51:25.724Z,26.50
2017-12-17T08:52:29.033Z,19.00
2017-12-17T08:53:31.979Z,18.50
2017-12-17T08:54:34.954Z,20.00
2017-12-17T08:55:37.982Z,18.00
2017-12-17T08:56:40.952Z,13.50
2017-12-17T08:57:43.909Z,21.50
2017-12-17T08:58:47.293Z,15.50
2017-12-17T08:59:51.491Z,21.50
2017-12-17T09:00:54.370Z,14.00
2017-12-17T09:01:57.281Z,16.00
2017-12-17T09:03:00.176Z,20.00
2017-12-17T09:04:03.144Z,20.50
2017-12-17T09:05:06.922Z,17.00
2017-12-17T09:06:10.305Z,18.00
2017-12-17T09:07:13.323Z,14.00
2017-12-17T09:08:16.622Z,22.00
2017-12-17T09:09:20.883Z,9.00
2017-12-17T09:10:23.822Z,27.00
2017-12-17T09:11:27.277Z,17.00
2017-12-17T09:12:30.246Z,20.00
2017-12-17T09:13:33.202Z,12.00
2017-12-17T09:14:36.167Z,19.50
2017-12-17T09:15:39.146Z,18.00
2017-12-17T09:16:42.150Z,17.50
2017-12-17T09:17:45.568Z,20.00
2017-12-17T09:18:49.407Z,13.00
2017-12-17T09:19:52.398Z,13.00
2017-12-17T09:20:55.459Z,28.00
2017-12-17T09:21:58.643Z,12.50
2017-12-17T09:23:01.614Z,22.50
2017-12-17T09:24:04.647Z,12.00
2017-12-17T09:25:07.743Z,16.50
2017-12-17T09:26:10.684Z,18.00
2017-12-17T09:27:13.656Z,17.50
2017-12-17T09:28:16.765Z,18.50
2017-12-17T09:29:20.242Z,21.50
2017-12-17T09:30:23.764Z,30.00
2017-12-17T09:31:26.735Z,17.50
2017-12-17T09:32:29.817Z,21.50
2017-12-17T09:33:32.813Z,15.00
2017-12-17T09:34:35.866Z,22.50
2017-12-17T09:35:39.432Z,18.50
2017-12-17T09:36:42.464Z,22.00
2017-12-17T09:37:45.558Z,19.00
2017-12-17T09:38:49.590Z,25.50
2017-12-17T09:39:53.056Z,21.00
2017-12-17T09:40:56.142Z,27.00
2017-12-17T09:41:59.753Z,22.00
2017-12-17T09:43:02.809Z,19.00
2017-12-17T09:44:05.907Z,20.50
2017-12-17T09:45:08.937Z,24.50
2017-12-17T09:46:11.969Z,18.00
2017-12-17T09:47:14.906Z,24.00
2017-12-17T09:48:17.876Z,15.50
2017-12-17T09:49:20.855Z,15.00
2017-12-17T09:50:24.000Z,23.50
2017-12-17T09:51:28.330Z,22.00
2017-12-17T09:52:31.394Z,21.00
2017-12-17T09:53:34.729Z,18.50
2017-12-17T09:54:38.453Z,19.00
2017-12-17T09:55:41.472Z,21.50
2017-12-17T09:56:44.496Z,16.50
2017-12-17T09:57:48.829Z,16.50
2017-12-17T09:58:52.604Z,17.50
2017-12-17T09:59:58.021Z,21.50
2017-12-17T10:01:01.819Z,19.00
2017-12-17T10:02:06.595Z,13.00
2017-12-17T10:03:11.416Z,17.00
2017-12-17T10:04:14.778Z,20.50
2017-12-17T10:05:18.074Z,17.00
2017-12-17T10:06:22.044Z,18.50
2017-12-17T10:07:25.529Z,14.50
2017-12-17T10:08:29.198Z,22.00
2017-12-17T10:09:33.084Z,28.50
2017-12-17T10:10:38.019Z,22.50
2017-12-17T10:11:43.883Z,15.00
2017-12-17T10:12:48.798Z,17.00
2017-12-17T10:13:53.412Z,19.00
2017-12-17T10:14:57.995Z,19.50
2017-12-17T10:16:02.217Z,14.50
2017-12-17T10:17:06.555Z,24.00
2017-12-17T10:18:09.723Z,20.00
2017-12-17T10:19:13.987Z,24.00
2017-12-17T10:20:18.262Z,19.00
2017-12-17T10:21:22.392Z,16.00
2017-12-17T10:22:26.525Z,18.00
2017-12-17T10:23:31.411Z,17.50
2017-12-17T10:24:36.424Z,26.00
2017-12-17T10:25:41.342Z,18.00
2017-12-17T10:26:46.003Z,18.00
2017-12-17T10:27:50.917Z,20.50
2017-12-17T10:28:54.986Z,22.00
2017-12-17T10:29:59.505Z,23.00
2017-12-17T10:31:02.847Z,20.00
2017-12-17T10:32:06.553Z,16.50
2017-12-17T10:33:11.145Z,16.50
2017-12-17T10:34:15.879Z,16.50
2017-12-17T10:35:20.426Z,16.50
2017-12-17T10:36:24.864Z,20.50
2017-12-17T10:37:28.628Z,21.50
2017-12-17T10:38:32.766Z,18.50
2017-12-17T10:39:37.147Z,23.00
2017-12-17T10:40:42.135Z,28.00
2017-12-17T10:41:46.875Z,31.00
2017-12-17T10:42:50.984Z,26.50
2017-12-17T10:43:54.771Z,22.50
2017-12-17T10:44:59.733Z,24.50
2017-12-17T10:46:04.570Z,23.00
2017-12-17T10:47:09.517Z,24.00
2017-12-17T10:48:14.643Z,16.00
2017-12-17T10:49:21.444Z,16.00
2017-12-17T10:50:26.867Z,19.50
2017-12-17T10:51:31.815Z,28.00
2017-12-17T10:52:34.796Z,19.50
2017-12-17T10:53:38.446Z,18.00
2017-12-17T10:54:43.664Z,17.50
2017-12-17T10:55:47.492Z,22.00
2017-12-17T10:56:51.677Z,15.50
2017-12-17T10:57:57.258Z,21.50
2017-12-17T10:59:02.331Z,19.00
2017-12-17T11:00:06.963Z,23.50
2017-12-17T11:01:11.805Z,26.50
2017-12-17T11:02:16.476Z,20.50
2017-12-17T11:03:21.407Z,22.50
2017-12-17T11:04:26.837Z,22.00
2017-12-17T11:05:32.141Z,17.00
2017-12-17T11:06:39.473Z,21.50
2017-12-17T11:07:45.225Z,24.50
2017-12-17T11:08:50.218Z,18.00
2017-12-17T11:09:54.783Z,17.50
2017-12-17T11:11:01.448Z,18.50
2017-12-17T11:12:06.258Z,17.50
2017-12-17T11:13:11.118Z,20.00
2017-12-17T11:14:16.620Z,22.00
2017-12-17T11:15:22.206Z,22.50
2017-12-17T11:16:26.970Z,18.50
2017-12-17T11:17:32.341Z,25.50
2017-12-17T11:18:37.599Z,24.50
2017-12-17T11:19:42.039Z,26.50
2017-12-17T11:20:45.940Z,26.00
2017-12-17T11:21:49.758Z,14.00
2017-12-17T11:22:54.003Z,18.00
2017-12-17T11:23:59.161Z,25.00
2017-12-17T11:25:04.399Z,20.00
2017-12-17T11:26:10.601Z,15.00
2017-12-17T11:27:17.038Z,15.50
2017-12-17T11:28:22.144Z,16.00
2017-12-17T11:29:28.082Z,12.00
2017-12-17T11:30:33.137Z,19.50
2017-12-17T11:31:39.264Z,18.00
2017-12-17T11:32:44.680Z,16.00
2017-12-17T11:33:49.882Z,15.00
2017-12-17T11:34:53.874Z,17.00
2017-12-17T11:35:59.604Z,11.00
2017-12-17T11:37:04.379Z,16.00
2017-12-17T11:38:10.575Z,10.00
2017-12-17T11:39:15.954Z,15.00
2017-12-17T11:40:21.446Z,22.00
2017-12-17T11:41:26.722Z,20.50
2017-12-17T11:42:32.203Z,18.00
2017-12-17T11:43:37.972Z,15.50
2017-12-17T11:44:43.773Z,17.50
2017-12-17T11:45:49.349Z,18.00
2017-12-17T11:46:55.963Z,16.50
2017-12-17T11:47:59.792Z,16.00
2017-12-17T11:49:06.023Z,22.00
2017-12-17T11:50:11.228Z,12.00
2017-12-17T11:51:16.608Z,16.00
2017-12-17T11:52:23.753Z,19.50
2017-12-17T11:53:29.200Z,12.00
2017-12-17T11:54:36.168Z,18.00
2017-12-17T11:55:43.969Z,17.50
2017-12-17T11:56:49.333Z,16.00
2017-12-17T11:57:54.346Z,13.50
2017-12-17T11:59:00.423Z,16.00
2017-12-17T12:00:06.120Z,15.00
2017-12-17T12:01:11.175Z,16.00
2017-12-17T12:02:16.414Z,20.00
2017-12-17T12:03:21.860Z,12.50
2017-12-17T12:04:27.158Z,18.00
2017-12-17T12:05:32.481Z,15.50
2017-12-17T12:06:38.410Z,15.00
2017-12-17T12:07:44.077Z,15.00
2017-12-17T12:08:49.520Z,26.00
2017-12-17T12:09:54.955Z,16.00
2017-12-17T12:11:00.976Z,17.00
2017-12-17T12:12:07.165Z,14.50
2017-12-17T12:13:11.893Z,19.50
2017-12-17T12:14:17.379Z,19.00
2017-12-17T12:15:23.540Z,18.50
2017-12-17T12:16:30.311Z,14.00
2017-12-17T12:17:35.919Z,10.00
2017-12-17T12:18:41.571Z,14.50
2017-12-17T12:19:47.576Z,15.50
2017-12-17T12:20:57.834Z,14.50
2017-12-17T12:22:04.765Z,16.50
2017-12-17T12:23:11.065Z,24.00
2017-12-17T12:24:16.013Z,19.50
2017-12-17T12:25:24.265Z,22.50
2017-12-17T12:26:34.280Z,18.50
2017-12-17T12:27:42.366Z,28.50
2017-12-17T12:28:48.499Z,23.00
2017-12-17T12:29:54.684Z,21.00
2017-12-17T12:31:02.435Z,21.00
2017-12-17T12:32:09.830Z,20.50
2017-12-17T12:33:16.369Z,22.50
2017-12-17T12:34:21.120Z,17.00
2017-12-17T12:35:27.096Z,16.50
2017-12-17T12:36:33.175Z,24.50
2017-12-17T12:37:39.873Z,22.50
2017-12-17T12:38:46.641Z,22.00
2017-12-17T12:39:53.018Z,36.00
2017-12-17T12:41:00.244Z,20.00
2017-12-17T12:42:07.154Z,18.00
2017-12-17T12:43:12.834Z,20.00
2017-12-17T12:44:19.206Z,19.50
2017-12-17T12:45:24.588Z,31.00
2017-12-17T12:46:31.132Z,22.00
2017-12-17T12:47:37.254Z,18.00
2017-12-17T12:48:44.918Z,21.00
2017-12-17T12:49:50.728Z,23.50
2017-12-17T12:50:57.926Z,18.00
2017-12-17T12:52:05.109Z,13.50
2017-12-17T12:53:13.083Z,17.00
2017-12-17T12:54:22.013Z,18.50
2017-12-17T12:55:27.201Z,13.00
2017-12-17T12:56:34.098Z,16.00
2017-12-17T12:57:40.249Z,14.50
2017-12-17T12:58:47.405Z,18.00
2017-12-17T12:59:53.591Z,13.50
2017-12-17T13:01:01.586Z,11.50
2017-12-17T13:02:09.967Z,17.00
2017-12-17T13:03:17.065Z,20.50
2017-12-17T13:04:23.188Z,20.00
2017-12-17T13:05:30.388Z,18.50
2017-12-17T13:06:37.214Z,21.50
2017-12-17T13:07:43.927Z,19.50
2017-12-17T13:08:53.098Z,17.00
2017-12-17T13:10:00.368Z,26.50
2017-12-17T13:11:06.394Z,21.50
2017-12-17T13:12:14.695Z,22.50
2017-12-17T13:13:20.665Z,16.00
2017-12-17T13:14:27.232Z,24.00
2017-12-17T13:15:33.415Z,23.00
2017-12-17T13:16:39.057Z,16.50
2017-12-17T13:17:46.402Z,15.00
2017-12-17T13:18:53.140Z,18.00
2017-12-17T13:20:00.287Z,12.50
2017-12-17T13:21:06.953Z,15.00
2017-12-17T13:22:13.597Z,14.00
2017-12-17T13:23:21.488Z,19.50
2017-12-17T13:24:30.340Z,18.00
2017-12-17T13:25:39.540Z,20.50
2017-12-17T13:26:47.990Z,18.50
2017-12-17T13:27:55.219Z,17.00
2017-12-17T13:29:03.575Z,14.00
2017-12-17T13:30:13.611Z,17.50
2017-12-17T13:31:21.099Z,27.50
2017-12-17T13:32:33.061Z,22.00
2017-12-17T13:33:41.475Z,14.00
2017-12-17T13:34:49.076Z,31.00
2017-12-17T13:36:00.386Z,27.50
2017-12-17T13:37:08.888Z,11.50
2017-12-17T13:38:18.379Z,14.00
2017-12-17T13:39:26.969Z,24.00
2017-12-17T13:40:37.189Z,17.00
2017-12-17T13:41:44.807Z,16.50
2017-12-17T13:42:50.481Z,13.50
2017-12-17T13:43:59.303Z,23.00
2017-12-17T13:45:06.170Z,25.50
2017-12-17T13:46:16.172Z,23.00